sensor_id;sensor_type;location;lat;lon;timestamp;pressure;altitude;pressure_sealevel;temperature;humidity
71195;BME280;58908;51.426;7.714;2022-08-25T00:02:17;99929.47;;;19.54;64.76
71195;BME280;58908;51.426;7.714;2022-08-25T00:04:42;99926.94;;;19.52;63.90
71195;BME280;58908;51.426;7.714;2022-08-25T00:07:07;99927.50;;;19.65;62.68
71195;BME280;58908;51.426;7.714;2022-08-25T00:09:33;99939.06;;;19.56;63.47
71195;BME280;58908;51.426;7.714;2022-08-25T00:11:58;99925.66;;;19.56;64.03
71195;BME280;58908;51.426;7.714;2022-08-25T00:14:25;99922.41;;;19.53;64.19
71195;BME280;58908;51.426;7.714;2022-08-25T00:16:51;99924.69;;;19.48;64.20
71195;BME280;58908;51.426;7.714;2022-08-25T00:19:18;99930.56;;;19.42;64.29
71195;BME280;58908;51.426;7.714;2022-08-25T00:21:45;99923.69;;;19.49;64.08
71195;BME280;58908;51.426;7.714;2022-08-25T00:24:11;99925.09;;;19.44;63.89
71195;BME280;58908;51.426;7.714;2022-08-25T00:26:40;99932.72;;;19.39;63.89
71195;BME280;58908;51.426;7.714;2022-08-25T00:29:06;99924.09;;;19.35;64.17
71195;BME280;58908;51.426;7.714;2022-08-25T00:31:32;99922.97;;;19.28;64.45
71195;BME280;58908;51.426;7.714;2022-08-25T00:33:57;99918.59;;;19.18;64.30
71195;BME280;58908;51.426;7.714;2022-08-25T00:36:22;99922.78;;;19.20;64.15
71195;BME280;58908;51.426;7.714;2022-08-25T00:38:48;99929.28;;;19.27;63.46
71195;BME280;58908;51.426;7.714;2022-08-25T00:41:15;99926.19;;;19.22;64.38
71195;BME280;58908;51.426;7.714;2022-08-25T00:46:09;99928.72;;;19.24;64.42
71195;BME280;58908;51.426;7.714;2022-08-25T00:48:35;99928.38;;;19.17;64.19
71195;BME280;58908;51.426;7.714;2022-08-25T00:51:02;99934.44;;;19.10;64.74
71195;BME280;58908;51.426;7.714;2022-08-25T00:53:28;99929.63;;;19.04;64.86
71195;BME280;58908;51.426;7.714;2022-08-25T00:55:54;99933.25;;;18.93;65.93
71195;BME280;58908;51.426;7.714;2022-08-25T00:58:21;99934.94;;;18.94;65.91
71195;BME280;58908;51.426;7.714;2022-08-25T01:00:50;99935.91;;;18.84;66.32
71195;BME280;58908;51.426;7.714;2022-08-25T01:03:17;99940.78;;;18.79;65.97
71195;BME280;58908;51.426;7.714;2022-08-25T01:05:43;99934.75;;;18.77;66.44
71195;BME280;58908;51.426;7.714;2022-08-25T01:08:08;99937.22;;;18.69;66.86
71195;BME280;58908;51.426;7.714;2022-08-25T01:10:34;99928.91;;;18.62;67.01
71195;BME280;58908;51.426;7.714;2022-08-25T01:13:02;99926.22;;;18.62;66.87
71195;BME280;58908;51.426;7.714;2022-08-25T01:15:30;99925.78;;;18.57;67.16
71195;BME280;58908;51.426;7.714;2022-08-25T01:17:55;99923.38;;;18.54;67.65
71195;BME280;58908;51.426;7.714;2022-08-25T01:20:22;99934.47;;;18.50;67.80
71195;BME280;58908;51.426;7.714;2022-08-25T01:22:49;99932.44;;;18.42;68.12
71195;BME280;58908;51.426;7.714;2022-08-25T01:25:42;99931.06;;;18.27;68.78
71195;BME280;58908;51.426;7.714;2022-08-25T01:28:09;99936.09;;;18.21;68.77
71195;BME280;58908;51.426;7.714;2022-08-25T01:30:35;99938.16;;;18.17;69.49
71195;BME280;58908;51.426;7.714;2022-08-25T01:33:02;99933.50;;;18.10;69.49
71195;BME280;58908;51.426;7.714;2022-08-25T01:35:27;99942.31;;;18.10;68.72
71195;BME280;58908;51.426;7.714;2022-08-25T01:37:52;99933.94;;;18.15;68.35
71195;BME280;58908;51.426;7.714;2022-08-25T01:40:17;99940.06;;;18.47;66.80
71195;BME280;58908;51.426;7.714;2022-08-25T01:45:27;99933.13;;;18.35;67.93
71195;BME280;58908;51.426;7.714;2022-08-25T01:47:52;99928.66;;;18.24;68.32
71195;BME280;58908;51.426;7.714;2022-08-25T01:50:17;99937.00;;;18.10;69.76
71195;BME280;58908;51.426;7.714;2022-08-25T01:55:27;99936.22;;;17.99;70.36
71195;BME280;58908;51.426;7.714;2022-08-25T01:57:52;99933.94;;;18.15;68.29
71195;BME280;58908;51.426;7.714;2022-08-25T02:00:18;99939.34;;;18.24;68.16
71195;BME280;58908;51.426;7.714;2022-08-25T02:02:43;99941.66;;;18.29;67.72
71195;BME280;58908;51.426;7.714;2022-08-25T02:05:09;99928.47;;;18.16;69.94
71195;BME280;58908;51.426;7.714;2022-08-25T02:07:35;99933.59;;;18.08;69.97
71195;BME280;58908;51.426;7.714;2022-08-25T02:10:00;99930.28;;;17.95;70.76
71195;BME280;58908;51.426;7.714;2022-08-25T02:12:27;99930.66;;;17.91;70.27
71195;BME280;58908;51.426;7.714;2022-08-25T02:14:55;99930.50;;;17.83;71.30
71195;BME280;58908;51.426;7.714;2022-08-25T02:17:20;99932.47;;;17.70;72.23
71195;BME280;58908;51.426;7.714;2022-08-25T02:19:46;99933.75;;;17.55;73.21
71195;BME280;58908;51.426;7.714;2022-08-25T02:22:11;99936.16;;;17.58;72.31
71195;BME280;58908;51.426;7.714;2022-08-25T02:24:36;99928.31;;;17.56;72.71
71195;BME280;58908;51.426;7.714;2022-08-25T02:27:01;99923.56;;;17.49;71.89
71195;BME280;58908;51.426;7.714;2022-08-25T02:29:28;99927.09;;;17.49;72.99
71195;BME280;58908;51.426;7.714;2022-08-25T02:31:53;99926.25;;;17.49;72.21
71195;BME280;58908;51.426;7.714;2022-08-25T02:34:18;99928.19;;;17.47;72.71
71195;BME280;58908;51.426;7.714;2022-08-25T02:36:43;99927.38;;;17.46;72.87
71195;BME280;58908;51.426;7.714;2022-08-25T02:39:09;99925.34;;;17.39;73.34
71195;BME280;58908;51.426;7.714;2022-08-25T02:41:34;99919.13;;;17.38;73.66
71195;BME280;58908;51.426;7.714;2022-08-25T02:44:00;99921.91;;;17.26;74.86
71195;BME280;58908;51.426;7.714;2022-08-25T02:46:26;99924.00;;;17.22;74.37
71195;BME280;58908;51.426;7.714;2022-08-25T02:48:52;99919.41;;;17.24;74.12
71195;BME280;58908;51.426;7.714;2022-08-25T02:51:17;99928.38;;;17.23;74.25
71195;BME280;58908;51.426;7.714;2022-08-25T02:53:42;99924.97;;;17.21;74.32
71195;BME280;58908;51.426;7.714;2022-08-25T02:56:10;99921.94;;;17.15;74.88
71195;BME280;58908;51.426;7.714;2022-08-25T02:58:36;99926.69;;;17.11;75.01
71195;BME280;58908;51.426;7.714;2022-08-25T03:01:01;99926.81;;;17.10;75.46
71195;BME280;58908;51.426;7.714;2022-08-25T03:03:26;99924.78;;;17.02;76.44
71195;BME280;58908;51.426;7.714;2022-08-25T03:05:51;99923.31;;;16.98;76.46
71195;BME280;58908;51.426;7.714;2022-08-25T03:08:16;99922.38;;;16.99;76.30
71195;BME280;58908;51.426;7.714;2022-08-25T03:10:42;99915.31;;;16.98;75.96
71195;BME280;58908;51.426;7.714;2022-08-25T03:13:07;99913.13;;;17.03;76.09
71195;BME280;58908;51.426;7.714;2022-08-25T03:15:32;99912.66;;;16.98;76.73
71195;BME280;58908;51.426;7.714;2022-08-25T03:18:01;99916.44;;;16.96;76.59
71195;BME280;58908;51.426;7.714;2022-08-25T03:20:27;99911.09;;;16.96;76.85
71195;BME280;58908;51.426;7.714;2022-08-25T03:22:52;99905.16;;;17.03;76.46
71195;BME280;58908;51.426;7.714;2022-08-25T03:25:17;99905.63;;;16.97;77.45
71195;BME280;58908;51.426;7.714;2022-08-25T03:28:01;99897.06;;;16.94;77.74
71195;BME280;58908;51.426;7.714;2022-08-25T03:30:27;99900.09;;;16.90;77.52
71195;BME280;58908;51.426;7.714;2022-08-25T03:32:53;99898.97;;;16.92;77.70
71195;BME280;58908;51.426;7.714;2022-08-25T03:35:18;99896.50;;;17.22;76.13
71195;BME280;58908;51.426;7.714;2022-08-25T03:37:44;99886.09;;;17.19;75.48
71195;BME280;58908;51.426;7.714;2022-08-25T03:40:10;99892.06;;;17.11;76.40
71195;BME280;58908;51.426;7.714;2022-08-25T03:42:40;99887.81;;;17.09;76.53
71195;BME280;58908;51.426;7.714;2022-08-25T03:45:06;99888.44;;;17.01;76.97
71195;BME280;58908;51.426;7.714;2022-08-25T03:47:32;99877.78;;;16.91;76.95
71195;BME280;58908;51.426;7.714;2022-08-25T03:49:58;99889.44;;;16.79;78.40
71195;BME280;58908;51.426;7.714;2022-08-25T03:52:23;99883.53;;;16.64;78.11
71195;BME280;58908;51.426;7.714;2022-08-25T03:54:48;99890.78;;;16.62;78.25
71195;BME280;58908;51.426;7.714;2022-08-25T03:57:13;99898.63;;;16.53;79.29
71195;BME280;58908;51.426;7.714;2022-08-25T03:59:38;99892.13;;;16.46;80.14
71195;BME280;58908;51.426;7.714;2022-08-25T04:02:04;99887.38;;;16.49;79.81
71195;BME280;58908;51.426;7.714;2022-08-25T04:04:29;99886.28;;;16.63;78.95
71195;BME280;58908;51.426;7.714;2022-08-25T04:06:55;99891.97;;;16.69;78.56
71195;BME280;58908;51.426;7.714;2022-08-25T04:09:20;99892.69;;;16.82;78.03
71195;BME280;58908;51.426;7.714;2022-08-25T04:11:45;99892.22;;;16.77;78.35
71195;BME280;58908;51.426;7.714;2022-08-25T04:14:11;99885.09;;;16.67;79.69
71195;BME280;58908;51.426;7.714;2022-08-25T04:16:36;99887.75;;;16.67;79.38
71195;BME280;58908;51.426;7.714;2022-08-25T04:19:03;99893.94;;;16.56;80.14
71195;BME280;58908;51.426;7.714;2022-08-25T04:21:30;99887.38;;;16.49;80.74
71195;BME280;58908;51.426;7.714;2022-08-25T04:23:56;99891.97;;;16.58;79.78
71195;BME280;58908;51.426;7.714;2022-08-25T04:26:22;99899.00;;;16.59;79.47
71195;BME280;58908;51.426;7.714;2022-08-25T04:28:48;99901.91;;;16.56;79.75
71195;BME280;58908;51.426;7.714;2022-08-25T04:31:14;99893.44;;;16.62;80.13
71195;BME280;58908;51.426;7.714;2022-08-25T04:33:40;99883.25;;;16.67;79.43
71195;BME280;58908;51.426;7.714;2022-08-25T04:36:06;99881.44;;;16.90;77.90
71195;BME280;58908;51.426;7.714;2022-08-25T04:38:33;99876.78;;;17.13;76.61
71195;BME280;58908;51.426;7.714;2022-08-25T04:40:59;99872.38;;;17.23;76.38
71195;BME280;58908;51.426;7.714;2022-08-25T04:43:24;99876.84;;;17.23;76.30
71195;BME280;58908;51.426;7.714;2022-08-25T04:45:49;99875.50;;;17.28;75.94
71195;BME280;58908;51.426;7.714;2022-08-25T04:48:14;99879.13;;;17.27;75.86
71195;BME280;58908;51.426;7.714;2022-08-25T04:50:40;99869.41;;;17.48;75.86
71195;BME280;58908;51.426;7.714;2022-08-25T04:53:05;99874.84;;;17.47;75.46
71195;BME280;58908;51.426;7.714;2022-08-25T04:55:30;99874.88;;;17.36;75.80
71195;BME280;58908;51.426;7.714;2022-08-25T04:57:55;99869.75;;;17.12;77.26
71195;BME280;58908;51.426;7.714;2022-08-25T05:00:20;99873.88;;;17.05;77.14
71195;BME280;58908;51.426;7.714;2022-08-25T05:02:45;99869.06;;;16.99;77.10
71195;BME280;58908;51.426;7.714;2022-08-25T05:05:11;99874.28;;;16.79;78.26
71195;BME280;58908;51.426;7.714;2022-08-25T05:07:36;99874.91;;;16.83;79.08
71195;BME280;58908;51.426;7.714;2022-08-25T05:10:01;99890.50;;;16.87;78.65
71195;BME280;58908;51.426;7.714;2022-08-25T05:12:27;99880.69;;;16.88;79.06
71195;BME280;58908;51.426;7.714;2022-08-25T05:14:52;99886.75;;;16.90;79.65
71195;BME280;58908;51.426;7.714;2022-08-25T05:17:17;99894.16;;;16.86;79.88
71195;BME280;58908;51.426;7.714;2022-08-25T05:19:43;99885.28;;;16.86;79.99
71195;BME280;58908;51.426;7.714;2022-08-25T05:22:08;99882.78;;;16.84;80.73
71195;BME280;58908;51.426;7.714;2022-08-25T05:24:34;99884.19;;;16.99;79.76
71195;BME280;58908;51.426;7.714;2022-08-25T05:26:59;99886.28;;;17.27;79.10
71195;BME280;58908;51.426;7.714;2022-08-25T05:29:24;99886.00;;;17.72;77.30
71195;BME280;58908;51.426;7.714;2022-08-25T05:31:50;99887.56;;;18.16;75.16
71195;BME280;58908;51.426;7.714;2022-08-25T05:34:16;99881.06;;;18.29;74.56
71195;BME280;58908;51.426;7.714;2022-08-25T05:36:42;99878.97;;;18.33;75.92
71195;BME280;58908;51.426;7.714;2022-08-25T05:39:08;99879.56;;;18.36;75.88
71195;BME280;58908;51.426;7.714;2022-08-25T05:41:34;99871.25;;;18.30;77.25
71195;BME280;58908;51.426;7.714;2022-08-25T05:43:59;99869.44;;;18.19;77.85
71195;BME280;58908;51.426;7.714;2022-08-25T05:46:24;99866.84;;;18.49;76.58
71195;BME280;58908;51.426;7.714;2022-08-25T05:48:50;99868.31;;;18.63;75.86
71195;BME280;58908;51.426;7.714;2022-08-25T05:51:16;99870.78;;;18.55;77.91
71195;BME280;58908;51.426;7.714;2022-08-25T05:53:42;99877.41;;;19.00;74.46
71195;BME280;58908;51.426;7.714;2022-08-25T05:56:08;99867.28;;;19.13;75.29
71195;BME280;58908;51.426;7.714;2022-08-25T05:58:34;99868.00;;;19.15;74.57
71195;BME280;58908;51.426;7.714;2022-08-25T06:01:00;99870.47;;;19.55;72.50
71195;BME280;58908;51.426;7.714;2022-08-25T06:03:44;99874.09;;;19.64;72.15
71195;BME280;58908;51.426;7.714;2022-08-25T06:06:10;99866.88;;;20.02;70.74
71195;BME280;58908;51.426;7.714;2022-08-25T06:08:35;99861.47;;;20.31;69.56
71195;BME280;58908;51.426;7.714;2022-08-25T06:11:00;99859.88;;;20.47;68.55
71195;BME280;58908;51.426;7.714;2022-08-25T06:13:25;99851.00;;;20.74;68.58
71195;BME280;58908;51.426;7.714;2022-08-25T06:15:55;99850.41;;;20.80;68.56
71195;BME280;58908;51.426;7.714;2022-08-25T06:18:21;99848.13;;;20.94;68.08
71195;BME280;58908;51.426;7.714;2022-08-25T06:20:47;99848.66;;;21.15;66.55
71195;BME280;58908;51.426;7.714;2022-08-25T06:23:12;99850.22;;;21.70;64.87
71195;BME280;58908;51.426;7.714;2022-08-25T06:25:37;99852.44;;;22.68;60.75
71195;BME280;58908;51.426;7.714;2022-08-25T06:28:04;99847.66;;;23.85;56.94
71195;BME280;58908;51.426;7.714;2022-08-25T06:30:29;99849.50;;;23.93;55.85
71195;BME280;58908;51.426;7.714;2022-08-25T06:32:55;99844.53;;;24.60;53.80
71195;BME280;58908;51.426;7.714;2022-08-25T06:35:20;99853.34;;;25.98;51.34
71195;BME280;58908;51.426;7.714;2022-08-25T06:37:46;99847.84;;;25.08;52.62
71195;BME280;58908;51.426;7.714;2022-08-25T06:40:12;99841.97;;;25.80;51.32
71195;BME280;58908;51.426;7.714;2022-08-25T06:42:37;99845.44;;;25.21;51.93
71195;BME280;58908;51.426;7.714;2022-08-25T06:45:03;99849.13;;;25.51;51.77
71195;BME280;58908;51.426;7.714;2022-08-25T06:47:28;99845.97;;;26.58;49.37
71195;BME280;58908;51.426;7.714;2022-08-25T06:49:53;99857.88;;;26.35;49.58
71195;BME280;58908;51.426;7.714;2022-08-25T06:52:19;99853.06;;;26.74;48.51
71195;BME280;58908;51.426;7.714;2022-08-25T06:54:44;99854.91;;;27.17;46.10
71195;BME280;58908;51.426;7.714;2022-08-25T06:57:09;99849.66;;;26.43;48.31
71195;BME280;58908;51.426;7.714;2022-08-25T06:59:34;99846.53;;;26.83;48.70
71195;BME280;58908;51.426;7.714;2022-08-25T07:02:00;99846.81;;;26.59;49.10
71195;BME280;58908;51.426;7.714;2022-08-25T07:04:27;99849.06;;;26.70;48.90
71195;BME280;58908;51.426;7.714;2022-08-25T07:06:52;99850.88;;;27.48;46.75
71195;BME280;58908;51.426;7.714;2022-08-25T07:09:17;99843.25;;;28.48;45.43
71195;BME280;58908;51.426;7.714;2022-08-25T07:11:42;99855.00;;;28.55;44.43
71195;BME280;58908;51.426;7.714;2022-08-25T07:14:08;99854.59;;;28.31;44.44
71195;BME280;58908;51.426;7.714;2022-08-25T07:16:35;99852.66;;;27.55;46.48
71195;BME280;58908;51.426;7.714;2022-08-25T07:19:01;99854.66;;;27.12;48.37
71195;BME280;58908;51.426;7.714;2022-08-25T07:21:27;99851.03;;;28.30;45.82
71195;BME280;58908;51.426;7.714;2022-08-25T07:23:52;99856.78;;;27.93;45.30
71195;BME280;58908;51.426;7.714;2022-08-25T07:26:19;99853.44;;;28.40;44.91
71195;BME280;58908;51.426;7.714;2022-08-25T07:28:44;99852.03;;;29.31;43.22
71195;BME280;58908;51.426;7.714;2022-08-25T07:31:10;99856.84;;;29.36;43.21
71195;BME280;58908;51.426;7.714;2022-08-25T07:33:35;99862.25;;;30.34;40.61
71195;BME280;58908;51.426;7.714;2022-08-25T07:36:00;99856.41;;;30.18;41.18
71195;BME280;58908;51.426;7.714;2022-08-25T07:38:26;99863.06;;;29.90;41.07
71195;BME280;58908;51.426;7.714;2022-08-25T07:40:51;99856.81;;;30.02;41.81
71195;BME280;58908;51.426;7.714;2022-08-25T07:43:20;99858.00;;;29.07;41.89
71195;BME280;58908;51.426;7.714;2022-08-25T07:45:46;99853.19;;;30.79;39.98
71195;BME280;58908;51.426;7.714;2022-08-25T07:48:11;99853.13;;;31.49;37.58
71195;BME280;58908;51.426;7.714;2022-08-25T07:50:37;99849.19;;;31.76;37.60
71195;BME280;58908;51.426;7.714;2022-08-25T07:53:03;99850.97;;;32.20;37.17
71195;BME280;58908;51.426;7.714;2022-08-25T07:55:29;99848.34;;;31.76;37.66
71195;BME280;58908;51.426;7.714;2022-08-25T07:57:54;99847.34;;;32.50;35.31
71195;BME280;58908;51.426;7.714;2022-08-25T08:00:21;99854.34;;;31.09;38.02
71195;BME280;58908;51.426;7.714;2022-08-25T08:02:46;99843.34;;;31.35;37.59
71195;BME280;58908;51.426;7.714;2022-08-25T08:05:12;99836.47;;;29.79;41.13
71195;BME280;58908;51.426;7.714;2022-08-25T08:07:38;99841.03;;;30.82;39.72
71195;BME280;58908;51.426;7.714;2022-08-25T08:10:04;99839.00;;;29.80;40.81
71195;BME280;58908;51.426;7.714;2022-08-25T08:12:29;99825.56;;;30.63;39.32
71195;BME280;58908;51.426;7.714;2022-08-25T08:14:55;99831.72;;;31.02;37.72
71195;BME280;58908;51.426;7.714;2022-08-25T08:17:20;99830.38;;;30.67;38.65
71195;BME280;58908;51.426;7.714;2022-08-25T08:19:46;99833.69;;;30.89;39.19
71195;BME280;58908;51.426;7.714;2022-08-25T08:22:12;99829.44;;;31.43;38.26
71195;BME280;58908;51.426;7.714;2022-08-25T08:24:41;99834.72;;;30.81;38.35
71195;BME280;58908;51.426;7.714;2022-08-25T08:27:08;99838.81;;;31.23;37.65
71195;BME280;58908;51.426;7.714;2022-08-25T08:29:34;99840.25;;;29.91;39.94
71195;BME280;58908;51.426;7.714;2022-08-25T08:31:59;99840.47;;;30.02;40.16
71195;BME280;58908;51.426;7.714;2022-08-25T08:34:25;99836.91;;;29.95;41.59
71195;BME280;58908;51.426;7.714;2022-08-25T08:36:50;99831.81;;;30.76;39.32
71195;BME280;58908;51.426;7.714;2022-08-25T08:39:15;99829.84;;;31.03;38.69
71195;BME280;58908;51.426;7.714;2022-08-25T08:44:34;99827.91;;;30.01;40.52
71195;BME280;58908;51.426;7.714;2022-08-25T08:47:10;99826.22;;;29.74;40.90
71195;BME280;58908;51.426;7.714;2022-08-25T08:49:40;99821.59;;;30.52;39.64
71195;BME280;58908;51.426;7.714;2022-08-25T08:52:09;99822.09;;;30.93;37.49
71195;BME280;58908;51.426;7.714;2022-08-25T08:54:37;99816.00;;;29.89;40.56
71195;BME280;58908;51.426;7.714;2022-08-25T08:57:05;99806.38;;;31.46;37.71
71195;BME280;58908;51.426;7.714;2022-08-25T08:59:38;99806.72;;;29.51;40.42
71195;BME280;58908;51.426;7.714;2022-08-25T09:02:06;99801.19;;;31.93;36.91
71195;BME280;58908;51.426;7.714;2022-08-25T09:04:38;99797.78;;;31.98;37.31
71195;BME280;58908;51.426;7.714;2022-08-25T09:07:12;99789.09;;;30.64;39.24
71195;BME280;58908;51.426;7.714;2022-08-25T09:09:39;99793.84;;;31.63;37.84
71195;BME280;58908;51.426;7.714;2022-08-25T09:22:45;99781.66;;;31.96;35.32
71195;BME280;58908;51.426;7.714;2022-08-25T09:27:48;99786.66;;;31.99;34.43
71195;BME280;58908;51.426;7.714;2022-08-25T09:30:19;99788.00;;;30.84;35.14
71195;BME280;58908;51.426;7.714;2022-08-25T09:32:49;99784.13;;;29.44;37.01
71195;BME280;58908;51.426;7.714;2022-08-25T09:37:53;99763.78;;;31.07;36.42
71195;BME280;58908;51.426;7.714;2022-08-25T09:40:19;99770.69;;;30.46;35.74
71195;BME280;58908;51.426;7.714;2022-08-25T09:42:45;99764.34;;;30.72;35.19
71195;BME280;58908;51.426;7.714;2022-08-25T09:45:12;99762.53;;;31.41;33.78
71195;BME280;58908;51.426;7.714;2022-08-25T09:47:41;99759.75;;;31.23;34.37
71195;BME280;58908;51.426;7.714;2022-08-25T09:50:06;99760.59;;;30.66;33.95
71195;BME280;58908;51.426;7.714;2022-08-25T09:52:38;99760.09;;;30.19;35.51
71195;BME280;58908;51.426;7.714;2022-08-25T10:00:17;99737.38;;;31.70;31.71
71195;BME280;58908;51.426;7.714;2022-08-25T10:02:44;99739.88;;;30.65;34.32
71195;BME280;58908;51.426;7.714;2022-08-25T10:05:24;99740.28;;;30.69;32.97
71195;BME280;58908;51.426;7.714;2022-08-25T10:07:51;99725.53;;;32.00;31.30
71195;BME280;58908;51.426;7.714;2022-08-25T10:10:21;99718.19;;;31.52;31.79
71195;BME280;58908;51.426;7.714;2022-08-25T10:12:48;99718.81;;;32.03;32.56
71195;BME280;58908;51.426;7.714;2022-08-25T10:17:41;99711.06;;;31.51;33.17
71195;BME280;58908;51.426;7.714;2022-08-25T10:22:35;99695.75;;;33.18;31.28
71195;BME280;58908;51.426;7.714;2022-08-25T10:25:00;99690.59;;;33.10;29.72
71195;BME280;58908;51.426;7.714;2022-08-25T10:27:34;99680.91;;;33.25;29.80
71195;BME280;58908;51.426;7.714;2022-08-25T10:35:13;99683.91;;;31.62;30.85
71195;BME280;58908;51.426;7.714;2022-08-25T10:37:48;99681.72;;;31.46;30.98
71195;BME280;58908;51.426;7.714;2022-08-25T10:42:56;99671.41;;;32.15;29.25
71195;BME280;58908;51.426;7.714;2022-08-25T10:45:24;99666.56;;;33.12;28.48
71195;BME280;58908;51.426;7.714;2022-08-25T10:50:43;99657.78;;;33.10;27.50
71195;BME280;58908;51.426;7.714;2022-08-25T10:56:06;99663.38;;;30.17;30.23
71195;BME280;58908;51.426;7.714;2022-08-25T11:01:21;99651.41;;;31.05;29.04
71195;BME280;58908;51.426;7.714;2022-08-25T11:03:54;99650.72;;;31.10;29.98
71195;BME280;58908;51.426;7.714;2022-08-25T11:06:33;99643.72;;;31.27;29.27
71195;BME280;58908;51.426;7.714;2022-08-25T11:09:03;99638.47;;;31.74;30.22
71195;BME280;58908;51.426;7.714;2022-08-25T11:11:30;99648.66;;;30.30;30.31
71195;BME280;58908;51.426;7.714;2022-08-25T11:14:02;99633.63;;;31.52;30.65
71195;BME280;58908;51.426;7.714;2022-08-25T11:16:34;99644.84;;;30.82;30.21
71195;BME280;58908;51.426;7.714;2022-08-25T11:21:43;99635.66;;;30.76;29.69
71195;BME280;58908;51.426;7.714;2022-08-25T11:26:55;99637.50;;;30.45;31.21
71195;BME280;58908;51.426;7.714;2022-08-25T11:29:20;99634.28;;;30.54;29.48
71195;BME280;58908;51.426;7.714;2022-08-25T11:31:49;99633.56;;;30.78;30.14
71195;BME280;58908;51.426;7.714;2022-08-25T11:34:18;99632.09;;;30.38;29.65
71195;BME280;58908;51.426;7.714;2022-08-25T11:37:06;99616.28;;;30.60;29.33
71195;BME280;58908;51.426;7.714;2022-08-25T11:39:41;99610.34;;;31.00;29.30
71195;BME280;58908;51.426;7.714;2022-08-25T11:42:22;99626.25;;;30.35;30.78
71195;BME280;58908;51.426;7.714;2022-08-25T11:45:07;99617.38;;;30.46;30.22
71195;BME280;58908;51.426;7.714;2022-08-25T11:47:46;99613.97;;;30.57;30.72
71195;BME280;58908;51.426;7.714;2022-08-25T11:50:25;99624.66;;;30.52;30.25
71195;BME280;58908;51.426;7.714;2022-08-25T11:52:52;99626.25;;;30.35;30.50
71195;BME280;58908;51.426;7.714;2022-08-25T11:57:43;99615.22;;;30.92;29.69
71195;BME280;58908;51.426;7.714;2022-08-25T12:02:53;99620.53;;;30.80;29.89
71195;BME280;58908;51.426;7.714;2022-08-25T12:10:51;99605.25;;;30.79;30.50
71195;BME280;58908;51.426;7.714;2022-08-25T12:16:00;99609.34;;;30.64;31.04
71195;BME280;58908;51.426;7.714;2022-08-25T12:23:28;99597.50;;;29.82;33.62
71195;BME280;58908;51.426;7.714;2022-08-25T12:25:54;99586.59;;;29.89;33.67
71195;BME280;58908;51.426;7.714;2022-08-25T12:28:36;99598.28;;;30.09;33.08
71195;BME280;58908;51.426;7.714;2022-08-25T12:31:06;99588.63;;;30.13;33.62
71195;BME280;58908;51.426;7.714;2022-08-25T12:36:10;99587.59;;;30.01;33.62
71195;BME280;58908;51.426;7.714;2022-08-25T12:38:49;99579.63;;;30.62;33.01
71195;BME280;58908;51.426;7.714;2022-08-25T12:41:21;99581.34;;;30.81;31.90
71195;BME280;58908;51.426;7.714;2022-08-25T12:43:47;99579.63;;;30.87;32.34
71195;BME280;58908;51.426;7.714;2022-08-25T12:51:27;99575.13;;;31.48;31.99
71195;BME280;58908;51.426;7.714;2022-08-25T12:56:52;99571.31;;;31.06;32.31
71195;BME280;58908;51.426;7.714;2022-08-25T12:59:21;99567.25;;;30.60;32.57
71195;BME280;58908;51.426;7.714;2022-08-25T13:01:51;99564.41;;;30.42;32.74
71195;BME280;58908;51.426;7.714;2022-08-25T13:12:14;99552.34;;;31.18;32.41
71195;BME280;58908;51.426;7.714;2022-08-25T13:14:41;99544.13;;;31.00;32.14
71195;BME280;58908;51.426;7.714;2022-08-25T13:17:07;99553.22;;;30.87;32.22
71195;BME280;58908;51.426;7.714;2022-08-25T13:19:33;99540.31;;;31.25;31.28
71195;BME280;58908;51.426;7.714;2022-08-25T13:21:59;99541.22;;;30.95;31.98
71195;BME280;58908;51.426;7.714;2022-08-25T13:24:25;99536.63;;;31.38;30.48
71195;BME280;58908;51.426;7.714;2022-08-25T13:26:56;99537.53;;;31.32;31.99
71195;BME280;58908;51.426;7.714;2022-08-25T13:29:23;99537.75;;;31.06;31.85
71195;BME280;58908;51.426;7.714;2022-08-25T13:31:56;99526.69;;;31.25;31.19
71195;BME280;58908;51.426;7.714;2022-08-25T13:34:23;99531.78;;;31.40;30.30
71195;BME280;58908;51.426;7.714;2022-08-25T13:36:49;99530.66;;;31.65;31.74
71195;BME280;58908;51.426;7.714;2022-08-25T13:39:33;99523.47;;;31.53;31.22
71195;BME280;58908;51.426;7.714;2022-08-25T13:41:59;99524.22;;;31.60;31.98
71195;BME280;58908;51.426;7.714;2022-08-25T13:44:26;99515.13;;;31.30;30.95
71195;BME280;58908;51.426;7.714;2022-08-25T13:47:05;99517.25;;;31.46;31.59
71195;BME280;58908;51.426;7.714;2022-08-25T13:49:31;99518.44;;;31.14;32.40
71195;BME280;58908;51.426;7.714;2022-08-25T13:51:56;99506.09;;;31.05;32.72
71195;BME280;58908;51.426;7.714;2022-08-25T13:54:34;99511.19;;;31.26;32.17
71195;BME280;58908;51.426;7.714;2022-08-25T13:57:04;99510.50;;;31.30;31.36
71195;BME280;58908;51.426;7.714;2022-08-25T13:59:32;99499.34;;;31.14;31.66
71195;BME280;58908;51.426;7.714;2022-08-25T14:02:00;99502.53;;;31.29;31.62
71195;BME280;58908;51.426;7.714;2022-08-25T14:04:43;99496.94;;;31.60;30.96
71195;BME280;58908;51.426;7.714;2022-08-25T14:07:30;99497.88;;;31.36;31.69
71195;BME280;58908;51.426;7.714;2022-08-25T14:09:58;99494.44;;;31.58;31.78
71195;BME280;58908;51.426;7.714;2022-08-25T14:15:37;99485.66;;;31.56;31.52
71195;BME280;58908;51.426;7.714;2022-08-25T14:17:47;99489.06;;;31.52;32.21
71195;BME280;58908;51.426;7.714;2022-08-25T14:20:18;99484.53;;;31.46;31.61
71195;BME280;58908;51.426;7.714;2022-08-25T14:22:44;99488.06;;;31.46;32.03
71195;BME280;58908;51.426;7.714;2022-08-25T14:25:09;99489.44;;;31.37;31.17
71195;BME280;58908;51.426;7.714;2022-08-25T14:27:35;99492.75;;;30.79;32.17
71195;BME280;58908;51.426;7.714;2022-08-25T14:30:00;99488.06;;;30.61;32.50
71195;BME280;58908;51.426;7.714;2022-08-25T14:32:25;99487.22;;;30.61;32.47
71195;BME280;58908;51.426;7.714;2022-08-25T14:34:51;99493.34;;;30.50;33.37
71195;BME280;58908;51.426;7.714;2022-08-25T14:37:17;99486.75;;;30.64;32.36
71195;BME280;58908;51.426;7.714;2022-08-25T14:39:42;99479.59;;;30.69;32.18